sensor_id;sensor_type;location;lat;lon;timestamp;temperature;humidity
33715;DHT22;20043;50.998;4.754;2023-03-14T00:01:52;12.30;99.90
33715;DHT22;20043;50.998;4.754;2023-03-14T00:04:18;12.30;99.90
33715;DHT22;20043;50.998;4.754;2023-03-14T00:06:44;12.30;99.90
33715;DHT22;20043;50.998;4.754;2023-03-14T00:09:12;12.40;99.90
33715;DHT22;20043;50.998;4.754;2023-03-14T00:11:38;12.30;99.90
33715;DHT22;20043;50.998;4.754;2023-03-14T00:14:04;12.30;99.90
33715;DHT22;20043;50.998;4.754;2023-03-14T00:16:29;12.30;99.90
33715;DHT22;20043;50.998;4.754;2023-03-14T00:18:55;12.20;99.90
33715;DHT22;20043;50.998;4.754;2023-03-14T00:21:20;12.20;99.90
33715;DHT22;20043;50.998;4.754;2023-03-14T00:23:46;12.20;99.90
33715;DHT22;20043;50.998;4.754;2023-03-14T00:26:14;12.20;99.90
33715;DHT22;20043;50.998;4.754;2023-03-14T00:28:41;12.20;99.90
33715;DHT22;20043;50.998;4.754;2023-03-14T00:31:08;12.30;99.90
33715;DHT22;20043;50.998;4.754;2023-03-14T00:33:34;12.40;99.90
33715;DHT22;20043;50.998;4.754;2023-03-14T00:36:06;12.30;99.90
33715;DHT22;20043;50.998;4.754;2023-03-14T00:38:34;12.20;99.90
33715;DHT22;20043;50.998;4.754;2023-03-14T00:41:04;12.20;99.90
33715;DHT22;20043;50.998;4.754;2023-03-14T00:43:30;12.20;99.90
33715;DHT22;20043;50.998;4.754;2023-03-14T00:45:55;12.20;99.90
33715;DHT22;20043;50.998;4.754;2023-03-14T00:48:22;12.20;99.90
33715;DHT22;20043;50.998;4.754;2023-03-14T00:50:48;12.10;99.90
33715;DHT22;20043;50.998;4.754;2023-03-14T00:53:13;12.00;99.90
33715;DHT22;20043;50.998;4.754;2023-03-14T00:55:40;12.10;99.90
33715;DHT22;20043;50.998;4.754;2023-03-14T00:58:08;12.10;99.90
33715;DHT22;20043;50.998;4.754;2023-03-14T01:00:33;12.20;99.90
33715;DHT22;20043;50.998;4.754;2023-03-14T01:03:00;12.20;99.90
33715;DHT22;20043;50.998;4.754;2023-03-14T01:05:26;12.10;99.90
33715;DHT22;20043;50.998;4.754;2023-03-14T01:07:51;12.00;99.90
33715;DHT22;20043;50.998;4.754;2023-03-14T01:10:17;12.00;99.90
33715;DHT22;20043;50.998;4.754;2023-03-14T01:12:43;12.00;99.90
33715;DHT22;20043;50.998;4.754;2023-03-14T01:15:09;12.00;99.90
33715;DHT22;20043;50.998;4.754;2023-03-14T01:17:34;12.00;99.90
33715;DHT22;20043;50.998;4.754;2023-03-14T01:20:01;12.10;99.90
33715;DHT22;20043;50.998;4.754;2023-03-14T01:22:26;12.20;99.90
33715;DHT22;20043;50.998;4.754;2023-03-14T01:24:52;12.20;99.90
33715;DHT22;20043;50.998;4.754;2023-03-14T01:27:18;12.20;99.90
33715;DHT22;20043;50.998;4.754;2023-03-14T01:29:43;12.20;99.90
33715;DHT22;20043;50.998;4.754;2023-03-14T01:32:09;12.10;99.90
33715;DHT22;20043;50.998;4.754;2023-03-14T01:34:35;12.10;99.90
33715;DHT22;20043;50.998;4.754;2023-03-14T01:37:00;12.20;99.90
33715;DHT22;20043;50.998;4.754;2023-03-14T01:39:26;12.20;99.90
33715;DHT22;20043;50.998;4.754;2023-03-14T01:41:51;12.10;99.90
33715;DHT22;20043;50.998;4.754;2023-03-14T01:44:17;12.10;99.90
33715;DHT22;20043;50.998;4.754;2023-03-14T01:46:44;12.10;99.90
33715;DHT22;20043;50.998;4.754;2023-03-14T01:49:15;12.10;99.90
33715;DHT22;20043;50.998;4.754;2023-03-14T01:54:20;12.00;99.90
33715;DHT22;20043;50.998;4.754;2023-03-14T01:56:56;12.10;99.90
33715;DHT22;20043;50.998;4.754;2023-03-14T01:59:23;12.10;99.90
33715;DHT22;20043;50.998;4.754;2023-03-14T02:01:50;12.10;99.90
33715;DHT22;20043;50.998;4.754;2023-03-14T02:04:17;12.00;99.90
33715;DHT22;20043;50.998;4.754;2023-03-14T02:07:09;12.10;99.90
33715;DHT22;20043;50.998;4.754;2023-03-14T02:09:36;12.00;99.90
33715;DHT22;20043;50.998;4.754;2023-03-14T02:12:02;11.90;99.90
33715;DHT22;20043;50.998;4.754;2023-03-14T02:14:32;11.90;99.90
33715;DHT22;20043;50.998;4.754;2023-03-14T02:16:59;11.90;99.90
33715;DHT22;20043;50.998;4.754;2023-03-14T02:19:32;12.00;99.90
33715;DHT22;20043;50.998;4.754;2023-03-14T02:22:07;12.00;99.90
33715;DHT22;20043;50.998;4.754;2023-03-14T02:24:35;11.90;99.90
33715;DHT22;20043;50.998;4.754;2023-03-14T02:27:13;11.70;99.90
33715;DHT22;20043;50.998;4.754;2023-03-14T02:29:52;11.60;99.90
33715;DHT22;20043;50.998;4.754;2023-03-14T02:32:19;11.60;99.90
33715;DHT22;20043;50.998;4.754;2023-03-14T02:34:50;11.50;99.90
33715;DHT22;20043;50.998;4.754;2023-03-14T02:37:19;11.50;99.90
33715;DHT22;20043;50.998;4.754;2023-03-14T02:39:46;11.40;99.90
33715;DHT22;20043;50.998;4.754;2023-03-14T02:42:15;11.50;99.90
33715;DHT22;20043;50.998;4.754;2023-03-14T02:44:55;11.50;99.90
33715;DHT22;20043;50.998;4.754;2023-03-14T02:47:29;11.30;99.90
33715;DHT22;20043;50.998;4.754;2023-03-14T02:50:04;11.10;99.90
33715;DHT22;20043;50.998;4.754;2023-03-14T02:52:37;11.00;99.90
33715;DHT22;20043;50.998;4.754;2023-03-14T02:55:02;11.10;99.90
33715;DHT22;20043;50.998;4.754;2023-03-14T02:57:29;11.10;99.90
33715;DHT22;20043;50.998;4.754;2023-03-14T02:59:57;11.00;99.90
33715;DHT22;20043;50.998;4.754;2023-03-14T03:02:23;10.90;99.90
33715;DHT22;20043;50.998;4.754;2023-03-14T03:04:48;10.80;99.90
33715;DHT22;20043;50.998;4.754;2023-03-14T03:07:14;10.80;99.90
33715;DHT22;20043;50.998;4.754;2023-03-14T03:09:39;10.90;99.90
33715;DHT22;20043;50.998;4.754;2023-03-14T03:12:05;11.00;99.90
33715;DHT22;20043;50.998;4.754;2023-03-14T03:14:31;11.10;99.90
33715;DHT22;20043;50.998;4.754;2023-03-14T03:16:56;11.10;99.90
33715;DHT22;20043;50.998;4.754;2023-03-14T03:19:22;11.00;99.90
33715;DHT22;20043;50.998;4.754;2023-03-14T03:21:47;10.90;99.90
33715;DHT22;20043;50.998;4.754;2023-03-14T03:24:13;10.90;99.90
33715;DHT22;20043;50.998;4.754;2023-03-14T03:26:39;10.80;99.90
33715;DHT22;20043;50.998;4.754;2023-03-14T03:29:05;10.80;99.90
33715;DHT22;20043;50.998;4.754;2023-03-14T03:31:30;10.80;99.90
33715;DHT22;20043;50.998;4.754;2023-03-14T03:33:56;10.70;99.90
33715;DHT22;20043;50.998;4.754;2023-03-14T03:36:23;10.50;99.90
33715;DHT22;20043;50.998;4.754;2023-03-14T03:38:49;10.60;99.90
33715;DHT22;20043;50.998;4.754;2023-03-14T03:41:15;10.60;99.90
33715;DHT22;20043;50.998;4.754;2023-03-14T03:43:40;10.70;99.90
33715;DHT22;20043;50.998;4.754;2023-03-14T03:46:06;10.70;99.90
33715;DHT22;20043;50.998;4.754;2023-03-14T03:48:32;10.80;99.90
33715;DHT22;20043;50.998;4.754;2023-03-14T03:50:58;10.70;99.90
33715;DHT22;20043;50.998;4.754;2023-03-14T03:53:24;10.70;99.90
33715;DHT22;20043;50.998;4.754;2023-03-14T03:55:49;10.80;99.90
33715;DHT22;20043;50.998;4.754;2023-03-14T03:58:15;10.70;99.90
33715;DHT22;20043;50.998;4.754;2023-03-14T04:00:41;10.70;99.90
33715;DHT22;20043;50.998;4.754;2023-03-14T04:03:06;10.80;99.90
33715;DHT22;20043;50.998;4.754;2023-03-14T04:05:32;10.80;99.90
33715;DHT22;20043;50.998;4.754;2023-03-14T04:07:59;10.80;99.90
33715;DHT22;20043;50.998;4.754;2023-03-14T04:10:25;10.80;99.90
33715;DHT22;20043;50.998;4.754;2023-03-14T04:12:51;10.80;99.90
33715;DHT22;20043;50.998;4.754;2023-03-14T04:15:17;10.90;99.90
33715;DHT22;20043;50.998;4.754;2023-03-14T04:17:43;10.90;99.90
33715;DHT22;20043;50.998;4.754;2023-03-14T04:20:09;10.90;99.90
33715;DHT22;20043;50.998;4.754;2023-03-14T04:22:37;10.80;99.90
33715;DHT22;20043;50.998;4.754;2023-03-14T04:25:03;10.90;99.90
33715;DHT22;20043;50.998;4.754;2023-03-14T04:27:29;10.90;99.90
33715;DHT22;20043;50.998;4.754;2023-03-14T04:29:55;10.90;99.90
33715;DHT22;20043;50.998;4.754;2023-03-14T04:32:21;11.00;99.90
33715;DHT22;20043;50.998;4.754;2023-03-14T04:34:46;10.90;99.90
33715;DHT22;20043;50.998;4.754;2023-03-14T04:37:12;10.90;99.90
33715;DHT22;20043;50.998;4.754;2023-03-14T04:39:38;10.90;99.90
33715;DHT22;20043;50.998;4.754;2023-03-14T04:42:03;10.90;99.90
33715;DHT22;20043;50.998;4.754;2023-03-14T04:44:29;11.00;99.90
33715;DHT22;20043;50.998;4.754;2023-03-14T04:46:54;10.90;99.90
33715;DHT22;20043;50.998;4.754;2023-03-14T04:49:20;10.90;99.90
33715;DHT22;20043;50.998;4.754;2023-03-14T04:51:46;11.00;99.90
33715;DHT22;20043;50.998;4.754;2023-03-14T04:54:11;11.00;99.90
33715;DHT22;20043;50.998;4.754;2023-03-14T04:56:37;11.00;99.90
33715;DHT22;20043;50.998;4.754;2023-03-14T04:59:03;11.10;99.90
33715;DHT22;20043;50.998;4.754;2023-03-14T05:01:29;11.10;99.90
33715;DHT22;20043;50.998;4.754;2023-03-14T05:03:55;11.20;99.90
33715;DHT22;20043;50.998;4.754;2023-03-14T05:06:20;11.20;99.90
33715;DHT22;20043;50.998;4.754;2023-03-14T05:08:46;11.20;99.90
33715;DHT22;20043;50.998;4.754;2023-03-14T05:11:12;11.10;99.90
33715;DHT22;20043;50.998;4.754;2023-03-14T05:13:38;11.00;99.90
33715;DHT22;20043;50.998;4.754;2023-03-14T05:16:08;10.90;99.90
33715;DHT22;20043;50.998;4.754;2023-03-14T05:18:34;10.90;99.90
33715;DHT22;20043;50.998;4.754;2023-03-14T05:21:00;11.00;99.90
33715;DHT22;20043;50.998;4.754;2023-03-14T05:23:26;11.00;99.90
33715;DHT22;20043;50.998;4.754;2023-03-14T05:25:51;11.10;99.90
33715;DHT22;20043;50.998;4.754;2023-03-14T05:28:17;11.10;99.90
33715;DHT22;20043;50.998;4.754;2023-03-14T05:30:43;11.20;99.90
33715;DHT22;20043;50.998;4.754;2023-03-14T05:33:08;11.10;99.90
33715;DHT22;20043;50.998;4.754;2023-03-14T05:35:34;11.00;99.90
33715;DHT22;20043;50.998;4.754;2023-03-14T05:37:59;10.90;99.90
33715;DHT22;20043;50.998;4.754;2023-03-14T05:40:25;11.00;99.90
33715;DHT22;20043;50.998;4.754;2023-03-14T05:42:51;11.00;99.90
33715;DHT22;20043;50.998;4.754;2023-03-14T05:45:17;11.00;99.90
33715;DHT22;20043;50.998;4.754;2023-03-14T05:47:43;11.00;99.90
33715;DHT22;20043;50.998;4.754;2023-03-14T05:50:09;11.00;99.90
33715;DHT22;20043;50.998;4.754;2023-03-14T05:52:35;11.10;99.90
33715;DHT22;20043;50.998;4.754;2023-03-14T05:55:01;11.00;99.90
33715;DHT22;20043;50.998;4.754;2023-03-14T05:57:26;11.10;99.90
33715;DHT22;20043;50.998;4.754;2023-03-14T05:59:52;11.20;99.90
33715;DHT22;20043;50.998;4.754;2023-03-14T06:02:17;11.20;99.90
33715;DHT22;20043;50.998;4.754;2023-03-14T06:04:43;11.20;99.90
33715;DHT22;20043;50.998;4.754;2023-03-14T06:07:09;11.20;99.90
33715;DHT22;20043;50.998;4.754;2023-03-14T06:09:34;11.20;99.90
33715;DHT22;20043;50.998;4.754;2023-03-14T06:12:00;11.30;99.90
33715;DHT22;20043;50.998;4.754;2023-03-14T06:14:25;11.20;99.90
33715;DHT22;20043;50.998;4.754;2023-03-14T06:16:51;11.30;99.90
33715;DHT22;20043;50.998;4.754;2023-03-14T06:19:17;11.30;99.90
33715;DHT22;20043;50.998;4.754;2023-03-14T06:21:43;11.30;99.90
33715;DHT22;20043;50.998;4.754;2023-03-14T06:24:09;11.40;99.90
33715;DHT22;20043;50.998;4.754;2023-03-14T06:26:34;11.40;99.90
33715;DHT22;20043;50.998;4.754;2023-03-14T06:29:00;11.40;99.90
33715;DHT22;20043;50.998;4.754;2023-03-14T06:31:29;11.30;99.90
33715;DHT22;20043;50.998;4.754;2023-03-14T06:33:55;11.30;99.90
33715;DHT22;20043;50.998;4.754;2023-03-14T06:36:21;11.30;99.90
33715;DHT22;20043;50.998;4.754;2023-03-14T06:38:46;11.40;99.90
33715;DHT22;20043;50.998;4.754;2023-03-14T06:41:12;11.30;99.90
33715;DHT22;20043;50.998;4.754;2023-03-14T06:43:38;11.30;99.90
33715;DHT22;20043;50.998;4.754;2023-03-14T06:46:03;11.30;99.90
33715;DHT22;20043;50.998;4.754;2023-03-14T06:48:29;11.20;99.90
33715;DHT22;20043;50.998;4.754;2023-03-14T06:50:55;11.20;99.90
33715;DHT22;20043;50.998;4.754;2023-03-14T06:53:20;11.20;99.90
33715;DHT22;20043;50.998;4.754;2023-03-14T06:55:46;11.10;99.90
33715;DHT22;20043;50.998;4.754;2023-03-14T06:58:12;11.20;99.90
33715;DHT22;20043;50.998;4.754;2023-03-14T07:00:37;11.20;99.90
33715;DHT22;20043;50.998;4.754;2023-03-14T07:03:03;11.20;99.90
33715;DHT22;20043;50.998;4.754;2023-03-14T07:05:29;11.20;99.90
33715;DHT22;20043;50.998;4.754;2023-03-14T07:07:54;11.10;99.90
33715;DHT22;20043;50.998;4.754;2023-03-14T07:10:20;11.20;99.90
33715;DHT22;20043;50.998;4.754;2023-03-14T07:12:46;11.00;99.90
33715;DHT22;20043;50.998;4.754;2023-03-14T07:15:11;10.50;99.90
33715;DHT22;20043;50.998;4.754;2023-03-14T07:17:37;10.20;99.90
33715;DHT22;20043;50.998;4.754;2023-03-14T07:20:03;10.10;99.90
33715;DHT22;20043;50.998;4.754;2023-03-14T07:22:32;9.90;99.90
33715;DHT22;20043;50.998;4.754;2023-03-14T07:24:58;9.80;99.90
33715;DHT22;20043;50.998;4.754;2023-03-14T07:27:23;9.80;99.90
33715;DHT22;20043;50.998;4.754;2023-03-14T07:29:49;9.50;99.90
33715;DHT22;20043;50.998;4.754;2023-03-14T07:32:15;9.40;99.90
33715;DHT22;20043;50.998;4.754;2023-03-14T07:34:46;9.40;99.90
33715;DHT22;20043;50.998;4.754;2023-03-14T07:37:12;9.40;99.90
33715;DHT22;20043;50.998;4.754;2023-03-14T07:39:38;9.30;99.90
33715;DHT22;20043;50.998;4.754;2023-03-14T07:42:03;9.20;99.90
33715;DHT22;20043;50.998;4.754;2023-03-14T07:44:29;9.20;99.90
33715;DHT22;20043;50.998;4.754;2023-03-14T07:46:54;9.10;99.90
33715;DHT22;20043;50.998;4.754;2023-03-14T07:49:20;8.90;99.90
33715;DHT22;20043;50.998;4.754;2023-03-14T07:51:49;8.80;99.90
33715;DHT22;20043;50.998;4.754;2023-03-14T07:54:14;8.60;99.90
33715;DHT22;20043;50.998;4.754;2023-03-14T07:56:40;8.60;99.90
33715;DHT22;20043;50.998;4.754;2023-03-14T07:59:06;8.70;99.90
33715;DHT22;20043;50.998;4.754;2023-03-14T08:01:31;8.70;99.90
33715;DHT22;20043;50.998;4.754;2023-03-14T08:03:57;8.80;99.90
33715;DHT22;20043;50.998;4.754;2023-03-14T08:06:22;8.90;99.90
33715;DHT22;20043;50.998;4.754;2023-03-14T08:08:48;8.90;99.90
33715;DHT22;20043;50.998;4.754;2023-03-14T08:11:13;9.00;99.90
33715;DHT22;20043;50.998;4.754;2023-03-14T08:13:39;9.10;99.90
33715;DHT22;20043;50.998;4.754;2023-03-14T08:16:05;9.10;99.90
33715;DHT22;20043;50.998;4.754;2023-03-14T08:18:31;9.10;99.90
33715;DHT22;20043;50.998;4.754;2023-03-14T08:20:57;9.20;99.90
33715;DHT22;20043;50.998;4.754;2023-03-14T08:23:23;9.20;99.90
33715;DHT22;20043;50.998;4.754;2023-03-14T08:25:49;9.20;99.90
33715;DHT22;20043;50.998;4.754;2023-03-14T08:28:16;9.20;99.90
33715;DHT22;20043;50.998;4.754;2023-03-14T08:30:41;9.30;99.90
33715;DHT22;20043;50.998;4.754;2023-03-14T08:33:07;9.20;99.90
33715;DHT22;20043;50.998;4.754;2023-03-14T08:35:32;9.20;99.90
33715;DHT22;20043;50.998;4.754;2023-03-14T08:37:58;9.10;99.90
33715;DHT22;20043;50.998;4.754;2023-03-14T08:40:23;9.10;99.90
33715;DHT22;20043;50.998;4.754;2023-03-14T08:42:49;9.10;99.90
33715;DHT22;20043;50.998;4.754;2023-03-14T08:45:16;9.10;99.90
33715;DHT22;20043;50.998;4.754;2023-03-14T08:47:42;9.00;99.90
33715;DHT22;20043;50.998;4.754;2023-03-14T08:50:09;9.10;99.90
33715;DHT22;20043;50.998;4.754;2023-03-14T08:52:35;9.20;99.90
33715;DHT22;20043;50.998;4.754;2023-03-14T08:55:00;9.30;99.90
33715;DHT22;20043;50.998;4.754;2023-03-14T08:57:26;9.40;99.90
33715;DHT22;20043;50.998;4.754;2023-03-14T08:59:55;9.50;99.90
33715;DHT22;20043;50.998;4.754;2023-03-14T09:02:22;9.50;99.90
33715;DHT22;20043;50.998;4.754;2023-03-14T09:04:49;9.50;99.90
33715;DHT22;20043;50.998;4.754;2023-03-14T09:07:15;9.40;99.90
33715;DHT22;20043;50.998;4.754;2023-03-14T09:09:40;9.40;99.90
33715;DHT22;20043;50.998;4.754;2023-03-14T09:12:06;9.50;99.90
33715;DHT22;20043;50.998;4.754;2023-03-14T09:14:32;9.50;99.90
33715;DHT22;20043;50.998;4.754;2023-03-14T09:16:58;9.60;99.90
33715;DHT22;20043;50.998;4.754;2023-03-14T09:19:23;9.50;99.90
33715;DHT22;20043;50.998;4.754;2023-03-14T09:21:49;9.50;99.90
33715;DHT22;20043;50.998;4.754;2023-03-14T09:24:15;9.60;99.90
33715;DHT22;20043;50.998;4.754;2023-03-14T09:26:41;9.70;99.90
33715;DHT22;20043;50.998;4.754;2023-03-14T09:29:06;9.70;99.90
33715;DHT22;20043;50.998;4.754;2023-03-14T09:31:33;9.70;99.90
33715;DHT22;20043;50.998;4.754;2023-03-14T09:33:58;9.60;99.90
33715;DHT22;20043;50.998;4.754;2023-03-14T09:36:24;9.40;99.90
33715;DHT22;20043;50.998;4.754;2023-03-14T09:38:50;9.40;99.90
33715;DHT22;20043;50.998;4.754;2023-03-14T09:41:25;9.40;99.90
33715;DHT22;20043;50.998;4.754;2023-03-14T09:46:37;9.20;99.90
33715;DHT22;20043;50.998;4.754;2023-03-14T09:49:15;9.30;99.90
33715;DHT22;20043;50.998;4.754;2023-03-14T09:51:45;9.20;99.90
33715;DHT22;20043;50.998;4.754;2023-03-14T09:54:31;9.40;99.90
33715;DHT22;20043;50.998;4.754;2023-03-14T09:56:58;9.00;99.90
33715;DHT22;20043;50.998;4.754;2023-03-14T09:59:25;8.80;99.90
33715;DHT22;20043;50.998;4.754;2023-03-14T10:01:52;8.60;99.90
33715;DHT22;20043;50.998;4.754;2023-03-14T10:04:22;8.50;99.90
33715;DHT22;20043;50.998;4.754;2023-03-14T10:06:50;8.20;99.90
33715;DHT22;20043;50.998;4.754;2023-03-14T10:09:24;8.10;99.90
33715;DHT22;20043;50.998;4.754;2023-03-14T10:11:58;8.10;99.90
33715;DHT22;20043;50.998;4.754;2023-03-14T10:14:37;8.00;99.90
33715;DHT22;20043;50.998;4.754;2023-03-14T10:17:12;8.00;99.90
33715;DHT22;20043;50.998;4.754;2023-03-14T10:19:51;8.00;99.90
33715;DHT22;20043;50.998;4.754;2023-03-14T10:22:18;8.10;99.90
33715;DHT22;20043;50.998;4.754;2023-03-14T10:24:56;8.20;99.90
33715;DHT22;20043;50.998;4.754;2023-03-14T10:27:34;8.40;99.90
33715;DHT22;20043;50.998;4.754;2023-03-14T10:30:03;8.50;99.90
33715;DHT22;20043;50.998;4.754;2023-03-14T10:32:37;8.50;99.90
33715;DHT22;20043;50.998;4.754;2023-03-14T10:37:51;8.70;99.90
33715;DHT22;20043;50.998;4.754;2023-03-14T10:40:19;8.80;99.90
33715;DHT22;20043;50.998;4.754;2023-03-14T10:42:46;8.80;99.90
33715;DHT22;20043;50.998;4.754;2023-03-14T10:48:21;8.70;99.90
33715;DHT22;20043;50.998;4.754;2023-03-14T10:51:05;8.70;99.90
33715;DHT22;20043;50.998;4.754;2023-03-14T10:53:46;8.70;99.90
33715;DHT22;20043;50.998;4.754;2023-03-14T10:56:15;8.80;99.90
33715;DHT22;20043;50.998;4.754;2023-03-14T10:58:52;8.80;99.90
33715;DHT22;20043;50.998;4.754;2023-03-14T11:01:37;8.80;99.90
33715;DHT22;20043;50.998;4.754;2023-03-14T11:07:01;9.00;99.90
33715;DHT22;20043;50.998;4.754;2023-03-14T11:15:03;8.80;99.90
33715;DHT22;20043;50.998;4.754;2023-03-14T11:20:43;8.90;99.90
33715;DHT22;20043;50.998;4.754;2023-03-14T11:23:22;9.00;99.90
33715;DHT22;20043;50.998;4.754;2023-03-14T11:28:42;9.10;99.90
33715;DHT22;20043;50.998;4.754;2023-03-14T11:31:29;9.10;99.90
33715;DHT22;20043;50.998;4.754;2023-03-14T11:39:14;9.40;99.90
33715;DHT22;20043;50.998;4.754;2023-03-14T11:41:43;9.30;99.90
33715;DHT22;20043;50.998;4.754;2023-03-14T11:47:10;9.40;99.90
33715;DHT22;20043;50.998;4.754;2023-03-14T11:55:26;9.10;99.90
33715;DHT22;20043;50.998;4.754;2023-03-14T11:58:11;9.10;99.90
33715;DHT22;20043;50.998;4.754;2023-03-14T12:00:38;9.20;99.90
33715;DHT22;20043;50.998;4.754;2023-03-14T12:03:26;9.10;99.90
33715;DHT22;20043;50.998;4.754;2023-03-14T12:08:43;9.20;99.90
33715;DHT22;20043;50.998;4.754;2023-03-14T12:11:20;9.10;99.90
33715;DHT22;20043;50.998;4.754;2023-03-14T12:13:50;9.10;99.90
33715;DHT22;20043;50.998;4.754;2023-03-14T12:16:31;9.00;99.90
33715;DHT22;20043;50.998;4.754;2023-03-14T12:19:34;8.70;99.90
33715;DHT22;20043;50.998;4.754;2023-03-14T12:22:06;8.30;99.90
33715;DHT22;20043;50.998;4.754;2023-03-14T12:24:35;8.20;99.90
33715;DHT22;20043;50.998;4.754;2023-03-14T12:27:05;8.20;99.90
33715;DHT22;20043;50.998;4.754;2023-03-14T12:29:31;8.30;99.90
33715;DHT22;20043;50.998;4.754;2023-03-14T12:34:30;8.30;99.90
33715;DHT22;20043;50.998;4.754;2023-03-14T12:37:05;8.30;99.90
33715;DHT22;20043;50.998;4.754;2023-03-14T12:42:05;8.50;99.90
33715;DHT22;20043;50.998;4.754;2023-03-14T12:44:40;8.70;99.90
33715;DHT22;20043;50.998;4.754;2023-03-14T12:49:53;9.00;99.90
33715;DHT22;20043;50.998;4.754;2023-03-14T12:55:36;9.30;99.90
33715;DHT22;20043;50.998;4.754;2023-03-14T12:58:20;9.40;99.90
33715;DHT22;20043;50.998;4.754;2023-03-14T13:00:57;9.30;99.90
33715;DHT22;20043;50.998;4.754;2023-03-14T13:03:26;9.30;99.90
33715;DHT22;20043;50.998;4.754;2023-03-14T13:05:57;9.30;99.90
33715;DHT22;20043;50.998;4.754;2023-03-14T13:08:44;9.20;99.90
33715;DHT22;20043;50.998;4.754;2023-03-14T13:11:15;9.20;99.90
33715;DHT22;20043;50.998;4.754;2023-03-14T13:13:56;9.10;99.90
33715;DHT22;20043;50.998;4.754;2023-03-14T13:16:23;9.00;99.90
33715;DHT22;20043;50.998;4.754;2023-03-14T13:18:51;8.50;99.90
33715;DHT22;20043;50.998;4.754;2023-03-14T13:21:27;8.10;99.90
33715;DHT22;20043;50.998;4.754;2023-03-14T13:26:37;8.20;99.90
33715;DHT22;20043;50.998;4.754;2023-03-14T13:29:17;8.30;99.90
33715;DHT22;20043;50.998;4.754;2023-03-14T13:31:49;8.20;99.90
33715;DHT22;20043;50.998;4.754;2023-03-14T13:34:15;8.40;99.90
33715;DHT22;20043;50.998;4.754;2023-03-14T13:36:42;8.60;99.90
33715;DHT22;20043;50.998;4.754;2023-03-14T13:39:14;8.60;99.90
33715;DHT22;20043;50.998;4.754;2023-03-14T13:41:41;8.60;99.90
33715;DHT22;20043;50.998;4.754;2023-03-14T13:44:10;8.70;99.90
33715;DHT22;20043;50.998;4.754;2023-03-14T13:46:38;8.90;99.90
33715;DHT22;20043;50.998;4.754;2023-03-14T13:49:06;8.90;99.90
33715;DHT22;20043;50.998;4.754;2023-03-14T13:51:32;8.80;99.90
33715;DHT22;20043;50.998;4.754;2023-03-14T13:53:59;8.70;99.90
33715;DHT22;20043;50.998;4.754;2023-03-14T13:56:27;8.80;99.90
33715;DHT22;20043;50.998;4.754;2023-03-14T13:58:53;8.90;99.90
33715;DHT22;20043;50.998;4.754;2023-03-14T14:01:26;8.90;99.90
33715;DHT22;20043;50.998;4.754;2023-03-14T14:03:55;8.90;99.90
33715;DHT22;20043;50.998;4.754;2023-03-14T14:06:35;9.00;99.90
33715;DHT22;20043;50.998;4.754;2023-03-14T14:09:12;9.00;99.90
33715;DHT22;20043;50.998;4.754;2023-03-14T14:14:24;8.90;99.90
33715;DHT22;20043;50.998;4.754;2023-03-14T14:16:53;8.80;99.90
33715;DHT22;20043;50.998;4.754;2023-03-14T14:19:21;8.70;99.90
33715;DHT22;20043;50.998;4.754;2023-03-14T14:21:48;8.60;99.90
33715;DHT22;20043;50.998;4.754;2023-03-14T14:24:15;8.60;99.90
33715;DHT22;20043;50.998;4.754;2023-03-14T14:26:53;8.70;99.90
33715;DHT22;20043;50.998;4.754;2023-03-14T14:29:31;8.70;99.90
33715;DHT22;20043;50.998;4.754;2023-03-14T14:32:13;8.90;99.90
33715;DHT22;20043;50.998;4.754;2023-03-14T14:34:55;9.10;99.90
33715;DHT22;20043;50.998;4.754;2023-03-14T14:37:27;9.10;99.90
33715;DHT22;20043;50.998;4.754;2023-03-14T14:39:56;9.10;99.90
33715;DHT22;20043;50.998;4.754;2023-03-14T14:42:26;8.90;99.90
33715;DHT22;20043;50.998;4.754;2023-03-14T14:44:53;8.70;99.90
33715;DHT22;20043;50.998;4.754;2023-03-14T14:47:21;8.40;99.90
33715;DHT22;20043;50.998;4.754;2023-03-14T14:49:49;8.10;99.90
33715;DHT22;20043;50.998;4.754;2023-03-14T14:52:30;7.90;99.90
33715;DHT22;20043;50.998;4.754;2023-03-14T14:55:00;7.90;99.90
33715;DHT22;20043;50.998;4.754;2023-03-14T14:57:33;7.50;99.90
33715;DHT22;20043;50.998;4.754;2023-03-14T15:00:17;7.50;99.90
33715;DHT22;20043;50.998;4.754;2023-03-14T15:02:48;7.40;99.90
33715;DHT22;20043;50.998;4.754;2023-03-14T15:05:14;7.30;99.90
33715;DHT22;20043;50.998;4.754;2023-03-14T15:07:41;7.40;99.90
33715;DHT22;20043;50.998;4.754;2023-03-14T15:10:16;7.50;99.90
33715;DHT22;20043;50.998;4.754;2023-03-14T15:12:42;7.50;99.90
33715;DHT22;20043;50.998;4.754;2023-03-14T15:15:11;7.60;99.90
33715;DHT22;20043;50.998;4.754;2023-03-14T15:17:38;7.40;99.90
33715;DHT22;20043;50.998;4.754;2023-03-14T15:20:05;7.50;99.90
33715;DHT22;20043;50.998;4.754;2023-03-14T15:22:31;7.70;99.90
33715;DHT22;20043;50.998;4.754;2023-03-14T15:24:57;7.90;99.90
33715;DHT22;20043;50.998;4.754;2023-03-14T15:27:22;8.20;99.90
33715;DHT22;20043;50.998;4.754;2023-03-14T15:29:48;8.40;99.90
33715;DHT22;20043;50.998;4.754;2023-03-14T15:32:16;8.30;99.90
33715;DHT22;20043;50.998;4.754;2023-03-14T15:34:42;8.50;99.90
33715;DHT22;20043;50.998;4.754;2023-03-14T15:37:12;8.60;99.90
33715;DHT22;20043;50.998;4.754;2023-03-14T15:39:39;8.70;99.90
33715;DHT22;20043;50.998;4.754;2023-03-14T15:42:05;8.80;99.90
33715;DHT22;20043;50.998;4.754;2023-03-14T15:44:30;8.90;99.90
33715;DHT22;20043;50.998;4.754;2023-03-14T15:46:56;9.00;99.90
33715;DHT22;20043;50.998;4.754;2023-03-14T15:49:21;9.10;99.90
33715;DHT22;20043;50.998;4.754;2023-03-14T15:51:47;9.20;99.90
33715;DHT22;20043;50.998;4.754;2023-03-14T15:54:14;9.20;99.90
33715;DHT22;20043;50.998;4.754;2023-03-14T15:56:39;9.10;99.90
33715;DHT22;20043;50.998;4.754;2023-03-14T15:59:05;9.10;99.90
33715;DHT22;20043;50.998;4.754;2023-03-14T16:01:31;9.00;99.90
33715;DHT22;20043;50.998;4.754;2023-03-14T16:03:56;8.70;99.90
33715;DHT22;20043;50.998;4.754;2023-03-14T16:06:22;8.60;99.90
33715;DHT22;20043;50.998;4.754;2023-03-14T16:08:48;8.60;99.90
33715;DHT22;20043;50.998;4.754;2023-03-14T16:11:14;8.50;99.90
33715;DHT22;20043;50.998;4.754;2023-03-14T16:13:41;8.50;99.90
33715;DHT22;20043;50.998;4.754;2023-03-14T16:16:07;8.30;99.90
33715;DHT22;20043;50.998;4.754;2023-03-14T16:18:35;8.30;99.90
33715;DHT22;20043;50.998;4.754;2023-03-14T16:21:06;8.00;99.90
33715;DHT22;20043;50.998;4.754;2023-03-14T16:23:33;7.90;99.90
33715;DHT22;20043;50.998;4.754;2023-03-14T16:26:03;7.90;99.90
33715;DHT22;20043;50.998;4.754;2023-03-14T16:28:29;7.90;99.90
33715;DHT22;20043;50.998;4.754;2023-03-14T16:31:06;7.70;99.90
33715;DHT22;20043;50.998;4.754;2023-03-14T16:33:33;7.70;99.90
33715;DHT22;20043;50.998;4.754;2023-03-14T16:36:00;7.70;99.90
33715;DHT22;20043;50.998;4.754;2023-03-14T16:38:30;7.50;99.90
33715;DHT22;20043;50.998;4.754;2023-03-14T16:41:01;7.50;99.90
33715;DHT22;20043;50.998;4.754;2023-03-14T16:43:28;7.60;99.90
33715;DHT22;20043;50.998;4.754;2023-03-14T16:45:55;7.50;99.90